sensor_id;sensor_type;location;lat;lon;timestamp;pressure;altitude;pressure_sealevel;temperature
69420;BMP280;56612;52.030;113.524;2022-10-16T00:01:13;94480.38;;;0.56
69420;BMP280;56612;52.030;113.524;2022-10-16T00:04:19;94477.69;;;0.64
69420;BMP280;56612;52.030;113.524;2022-10-16T00:07:22;94476.44;;;0.65
69420;BMP280;56612;52.030;113.524;2022-10-16T00:10:26;94483.59;;;0.81
69420;BMP280;56612;52.030;113.524;2022-10-16T00:13:29;94484.91;;;0.90
69420;BMP280;56612;52.030;113.524;2022-10-16T00:16:34;94488.56;;;0.95
69420;BMP280;56612;52.030;113.524;2022-10-16T00:19:38;94482.81;;;1.06
69420;BMP280;56612;52.030;113.524;2022-10-16T00:22:41;94485.94;;;1.22
69420;BMP280;56612;52.030;113.524;2022-10-16T00:25:45;94492.13;;;1.34
69420;BMP280;56612;52.030;113.524;2022-10-16T00:28:50;94495.50;;;1.54
69420;BMP280;56612;52.030;113.524;2022-10-16T00:31:54;94485.91;;;1.75
69420;BMP280;56612;52.030;113.524;2022-10-16T00:34:58;94497.69;;;2.21
69420;BMP280;56612;52.030;113.524;2022-10-16T00:38:02;94504.06;;;2.76
69420;BMP280;56612;52.030;113.524;2022-10-16T00:41:07;94507.63;;;3.19
69420;BMP280;56612;52.030;113.524;2022-10-16T00:47:54;94516.31;;;3.81
69420;BMP280;56612;52.030;113.524;2022-10-16T00:50:59;94517.38;;;4.19
69420;BMP280;56612;52.030;113.524;2022-10-16T00:54:04;94523.47;;;4.76
69420;BMP280;56612;52.030;113.524;2022-10-16T00:57:11;94521.34;;;4.96
69420;BMP280;56612;52.030;113.524;2022-10-16T01:00:23;94526.00;;;5.07
69420;BMP280;56612;52.030;113.524;2022-10-16T01:03:34;94525.72;;;5.36
69420;BMP280;56612;52.030;113.524;2022-10-16T01:10:23;94529.88;;;5.86
69420;BMP280;56612;52.030;113.524;2022-10-16T01:13:37;94528.97;;;5.58
69420;BMP280;56612;52.030;113.524;2022-10-16T01:16:52;94538.53;;;5.75
69420;BMP280;56612;52.030;113.524;2022-10-16T01:20:09;94536.63;;;6.12
69420;BMP280;56612;52.030;113.524;2022-10-16T01:23:45;94532.13;;;6.52
69420;BMP280;56612;52.030;113.524;2022-10-16T01:30:19;94540.56;;;7.38
69420;BMP280;56612;52.030;113.524;2022-10-16T01:33:30;94540.03;;;7.81
69420;BMP280;56612;52.030;113.524;2022-10-16T01:36:51;94546.91;;;8.56
69420;BMP280;56612;52.030;113.524;2022-10-16T01:39:59;94542.13;;;8.25
69420;BMP280;56612;52.030;113.524;2022-10-16T01:43:10;94544.22;;;8.27
69420;BMP280;56612;52.030;113.524;2022-10-16T01:46:17;94548.94;;;8.87
69420;BMP280;56612;52.030;113.524;2022-10-16T01:49:25;94537.97;;;9.11
69420;BMP280;56612;52.030;113.524;2022-10-16T01:52:29;94535.97;;;9.43
69420;BMP280;56612;52.030;113.524;2022-10-16T01:55:38;94542.22;;;9.81
69420;BMP280;56612;52.030;113.524;2022-10-16T01:59:04;94546.28;;;9.66
69420;BMP280;56612;52.030;113.524;2022-10-16T02:02:10;94544.16;;;9.47
69420;BMP280;56612;52.030;113.524;2022-10-16T02:05:44;94539.34;;;9.43
69420;BMP280;56612;52.030;113.524;2022-10-16T02:08:49;94534.69;;;8.97
69420;BMP280;56612;52.030;113.524;2022-10-16T02:11:56;94540.94;;;9.66
69420;BMP280;56612;52.030;113.524;2022-10-16T02:15:03;94533.81;;;9.55
69420;BMP280;56612;52.030;113.524;2022-10-16T02:18:07;94541.31;;;10.25
69420;BMP280;56612;52.030;113.524;2022-10-16T02:21:28;94545.03;;;11.47
69420;BMP280;56612;52.030;113.524;2022-10-16T02:24:43;94541.00;;;12.31
69420;BMP280;56612;52.030;113.524;2022-10-16T02:28:09;94539.88;;;13.10
69420;BMP280;56612;52.030;113.524;2022-10-16T02:31:20;94539.44;;;13.71
69420;BMP280;56612;52.030;113.524;2022-10-16T02:34:27;94536.13;;;14.32
69420;BMP280;56612;52.030;113.524;2022-10-16T02:37:32;94538.72;;;14.92
69420;BMP280;56612;52.030;113.524;2022-10-16T02:40:37;94537.44;;;15.31
69420;BMP280;56612;52.030;113.524;2022-10-16T02:43:40;94532.94;;;15.44
69420;BMP280;56612;52.030;113.524;2022-10-16T02:46:43;94534.25;;;15.05
69420;BMP280;56612;52.030;113.524;2022-10-16T02:49:47;94536.28;;;15.84
69420;BMP280;56612;52.030;113.524;2022-10-16T02:52:51;94539.56;;;16.23
69420;BMP280;56612;52.030;113.524;2022-10-16T02:55:55;94536.94;;;16.27
69420;BMP280;56612;52.030;113.524;2022-10-16T02:58:59;94529.53;;;16.84
69420;BMP280;56612;52.030;113.524;2022-10-16T03:02:03;94532.63;;;17.18
69420;BMP280;56612;52.030;113.524;2022-10-16T03:05:06;94530.16;;;17.47
69420;BMP280;56612;52.030;113.524;2022-10-16T03:08:10;94535.88;;;17.85
69420;BMP280;56612;52.030;113.524;2022-10-16T03:11:13;94533.59;;;18.58
69420;BMP280;56612;52.030;113.524;2022-10-16T03:14:17;94530.31;;;18.86
69420;BMP280;56612;52.030;113.524;2022-10-16T03:17:21;94522.88;;;18.91
69420;BMP280;56612;52.030;113.524;2022-10-16T03:20:25;94528.09;;;18.40
69420;BMP280;56612;52.030;113.524;2022-10-16T03:23:29;94522.25;;;19.12
69420;BMP280;56612;52.030;113.524;2022-10-16T03:26:37;94529.38;;;18.29
69420;BMP280;56612;52.030;113.524;2022-10-16T03:29:41;94536.31;;;18.54
69420;BMP280;56612;52.030;113.524;2022-10-16T03:32:44;94528.16;;;18.46
69420;BMP280;56612;52.030;113.524;2022-10-16T03:35:53;94516.81;;;18.94
69420;BMP280;56612;52.030;113.524;2022-10-16T03:38:57;94514.75;;;17.59
69420;BMP280;56612;52.030;113.524;2022-10-16T03:42:00;94514.09;;;17.63
69420;BMP280;56612;52.030;113.524;2022-10-16T03:45:04;94507.69;;;15.25
69420;BMP280;56612;52.030;113.524;2022-10-16T03:48:07;94500.53;;;12.01
69420;BMP280;56612;52.030;113.524;2022-10-16T03:51:11;94507.31;;;10.64
69420;BMP280;56612;52.030;113.524;2022-10-16T03:54:15;94496.38;;;9.86
69420;BMP280;56612;52.030;113.524;2022-10-16T03:57:18;94492.31;;;9.52
69420;BMP280;56612;52.030;113.524;2022-10-16T04:00:23;94493.03;;;10.57
69420;BMP280;56612;52.030;113.524;2022-10-16T04:03:27;94492.22;;;14.22
69420;BMP280;56612;52.030;113.524;2022-10-16T04:06:30;94499.88;;;17.60
69420;BMP280;56612;52.030;113.524;2022-10-16T04:09:34;94511.41;;;19.73
69420;BMP280;56612;52.030;113.524;2022-10-16T04:12:37;94501.13;;;18.70
69420;BMP280;56612;52.030;113.524;2022-10-16T04:15:41;94489.91;;;14.40
69420;BMP280;56612;52.030;113.524;2022-10-16T04:18:44;94490.78;;;15.61
69420;BMP280;56612;52.030;113.524;2022-10-16T04:21:47;94488.34;;;13.41
69420;BMP280;56612;52.030;113.524;2022-10-16T04:24:51;94480.41;;;10.77
69420;BMP280;56612;52.030;113.524;2022-10-16T04:27:55;94485.59;;;9.67
69420;BMP280;56612;52.030;113.524;2022-10-16T04:30:59;94475.69;;;9.20
69420;BMP280;56612;52.030;113.524;2022-10-16T04:34:03;94481.41;;;8.67
69420;BMP280;56612;52.030;113.524;2022-10-16T04:37:07;94480.50;;;8.47
69420;BMP280;56612;52.030;113.524;2022-10-16T04:40:12;94476.09;;;8.38
69420;BMP280;56612;52.030;113.524;2022-10-16T04:43:15;94471.50;;;8.54
69420;BMP280;56612;52.030;113.524;2022-10-16T04:46:18;94465.84;;;8.62
69420;BMP280;56612;52.030;113.524;2022-10-16T04:49:22;94476.03;;;8.97
69420;BMP280;56612;52.030;113.524;2022-10-16T04:52:26;94468.19;;;9.01
69420;BMP280;56612;52.030;113.524;2022-10-16T04:55:29;94461.84;;;9.08
69420;BMP280;56612;52.030;113.524;2022-10-16T04:58:33;94453.63;;;9.04
69420;BMP280;56612;52.030;113.524;2022-10-16T05:01:37;94459.22;;;8.63
69420;BMP280;56612;52.030;113.524;2022-10-16T05:04:42;94454.44;;;8.30
69420;BMP280;56612;52.030;113.524;2022-10-16T05:07:47;94445.09;;;8.44
69420;BMP280;56612;52.030;113.524;2022-10-16T05:10:50;94442.72;;;8.66
69420;BMP280;56612;52.030;113.524;2022-10-16T05:13:53;94446.00;;;8.80
69420;BMP280;56612;52.030;113.524;2022-10-16T05:16:57;94445.41;;;8.66
69420;BMP280;56612;52.030;113.524;2022-10-16T05:20:00;94446.25;;;8.71
69420;BMP280;56612;52.030;113.524;2022-10-16T05:23:04;94444.13;;;8.99
69420;BMP280;56612;52.030;113.524;2022-10-16T05:26:07;94445.72;;;9.37
69420;BMP280;56612;52.030;113.524;2022-10-16T05:29:11;94447.31;;;9.96
69420;BMP280;56612;52.030;113.524;2022-10-16T05:32:15;94464.75;;;13.38
69420;BMP280;56612;52.030;113.524;2022-10-16T05:35:19;94453.09;;;13.85
69420;BMP280;56612;52.030;113.524;2022-10-16T05:38:23;94450.50;;;16.21
69420;BMP280;56612;52.030;113.524;2022-10-16T05:41:27;94444.72;;;15.46
69420;BMP280;56612;52.030;113.524;2022-10-16T05:44:32;94456.09;;;20.76
69420;BMP280;56612;52.030;113.524;2022-10-16T05:47:41;94437.94;;;17.06
69420;BMP280;56612;52.030;113.524;2022-10-16T05:50:45;94428.28;;;14.52
69420;BMP280;56612;52.030;113.524;2022-10-16T05:53:49;94438.63;;;11.91
69420;BMP280;56612;52.030;113.524;2022-10-16T05:56:52;94438.00;;;12.16
69420;BMP280;56612;52.030;113.524;2022-10-16T05:59:55;94435.09;;;14.23
69420;BMP280;56612;52.030;113.524;2022-10-16T06:02:59;94424.50;;;17.14
69420;BMP280;56612;52.030;113.524;2022-10-16T06:06:14;94440.66;;;20.44
69420;BMP280;56612;52.030;113.524;2022-10-16T06:09:18;94422.00;;;17.41
69420;BMP280;56612;52.030;113.524;2022-10-16T06:12:21;94428.06;;;14.76
69420;BMP280;56612;52.030;113.524;2022-10-16T06:15:25;94427.03;;;13.91
69420;BMP280;56612;52.030;113.524;2022-10-16T06:18:29;94429.50;;;17.48
69420;BMP280;56612;52.030;113.524;2022-10-16T06:21:33;94421.25;;;19.73
69420;BMP280;56612;52.030;113.524;2022-10-16T06:24:37;94435.50;;;21.79
69420;BMP280;56612;52.030;113.524;2022-10-16T06:27:41;94424.75;;;23.92
69420;BMP280;56612;52.030;113.524;2022-10-16T06:30:45;94425.38;;;25.43
69420;BMP280;56612;52.030;113.524;2022-10-16T06:33:51;94415.66;;;21.88
69420;BMP280;56612;52.030;113.524;2022-10-16T06:36:55;94416.72;;;20.71
69420;BMP280;56612;52.030;113.524;2022-10-16T06:39:58;94401.09;;;20.71
69420;BMP280;56612;52.030;113.524;2022-10-16T06:43:02;94384.88;;;15.52
69420;BMP280;56612;52.030;113.524;2022-10-16T06:46:07;94411.81;;;19.05
69420;BMP280;56612;52.030;113.524;2022-10-16T06:49:13;94401.81;;;16.71
69420;BMP280;56612;52.030;113.524;2022-10-16T06:52:23;94406.91;;;17.09
69420;BMP280;56612;52.030;113.524;2022-10-16T06:55:27;94416.84;;;21.42
69420;BMP280;56612;52.030;113.524;2022-10-16T06:58:31;94419.28;;;22.28
69420;BMP280;56612;52.030;113.524;2022-10-16T07:01:35;94410.53;;;22.68
69420;BMP280;56612;52.030;113.524;2022-10-16T07:04:39;94414.03;;;23.45
69420;BMP280;56612;52.030;113.524;2022-10-16T07:07:42;94416.72;;;20.67
69420;BMP280;56612;52.030;113.524;2022-10-16T07:10:45;94407.72;;;19.54
69420;BMP280;56612;52.030;113.524;2022-10-16T07:13:50;94410.13;;;21.33
69420;BMP280;56612;52.030;113.524;2022-10-16T07:16:57;94399.41;;;22.37
69420;BMP280;56612;52.030;113.524;2022-10-16T07:20:02;94403.53;;;24.58
69420;BMP280;56612;52.030;113.524;2022-10-16T07:23:05;94407.50;;;25.46
69420;BMP280;56612;52.030;113.524;2022-10-16T07:26:10;94412.94;;;24.65
69420;BMP280;56612;52.030;113.524;2022-10-16T07:29:16;94414.28;;;24.95
69420;BMP280;56612;52.030;113.524;2022-10-16T07:32:20;94420.38;;;25.24
69420;BMP280;56612;52.030;113.524;2022-10-16T07:35:23;94392.09;;;23.14
69420;BMP280;56612;52.030;113.524;2022-10-16T07:38:27;94403.84;;;23.78
69420;BMP280;56612;52.030;113.524;2022-10-16T07:41:31;94404.53;;;22.60
69420;BMP280;56612;52.030;113.524;2022-10-16T07:44:36;94399.88;;;22.52
69420;BMP280;56612;52.030;113.524;2022-10-16T07:47:39;94397.47;;;19.81
69420;BMP280;56612;52.030;113.524;2022-10-16T07:50:45;94405.63;;;18.43
69420;BMP280;56612;52.030;113.524;2022-10-16T07:53:49;94408.34;;;19.75
69420;BMP280;56612;52.030;113.524;2022-10-16T07:56:53;94401.31;;;22.47
69420;BMP280;56612;52.030;113.524;2022-10-16T07:59:57;94397.78;;;20.57
69420;BMP280;56612;52.030;113.524;2022-10-16T08:03:12;94395.94;;;16.95
69420;BMP280;56612;52.030;113.524;2022-10-16T08:06:17;94397.53;;;15.43
69420;BMP280;56612;52.030;113.524;2022-10-16T08:09:27;94399.63;;;15.95
69420;BMP280;56612;52.030;113.524;2022-10-16T08:12:30;94404.97;;;18.45
69420;BMP280;56612;52.030;113.524;2022-10-16T08:15:38;94411.06;;;19.69
69420;BMP280;56612;52.030;113.524;2022-10-16T08:18:42;94411.06;;;18.54
69420;BMP280;56612;52.030;113.524;2022-10-16T08:21:48;94393.13;;;16.79
69420;BMP280;56612;52.030;113.524;2022-10-16T08:24:56;94404.22;;;15.87
69420;BMP280;56612;52.030;113.524;2022-10-16T08:27:59;94412.47;;;18.93
69420;BMP280;56612;52.030;113.524;2022-10-16T08:31:15;94420.78;;;20.74
69420;BMP280;56612;52.030;113.524;2022-10-16T08:34:23;94424.00;;;19.46
69420;BMP280;56612;52.030;113.524;2022-10-16T08:37:31;94414.47;;;19.64
69420;BMP280;56612;52.030;113.524;2022-10-16T08:40:38;94415.06;;;19.90
69420;BMP280;56612;52.030;113.524;2022-10-16T08:44:24;94407.16;;;20.80
69420;BMP280;56612;52.030;113.524;2022-10-16T08:50:56;94402.94;;;17.20
69420;BMP280;56612;52.030;113.524;2022-10-16T08:54:26;94406.63;;;15.66
69420;BMP280;56612;52.030;113.524;2022-10-16T08:57:31;94398.91;;;14.64
69420;BMP280;56612;52.030;113.524;2022-10-16T09:00:35;94393.00;;;13.12
69420;BMP280;56612;52.030;113.524;2022-10-16T09:04:04;94396.94;;;11.42
69420;BMP280;56612;52.030;113.524;2022-10-16T09:13:55;94389.50;;;9.33
69420;BMP280;56612;52.030;113.524;2022-10-16T09:20:33;94390.28;;;8.71
69420;BMP280;56612;52.030;113.524;2022-10-16T09:23:39;94386.06;;;8.50
69420;BMP280;56612;52.030;113.524;2022-10-16T09:26:43;94392.31;;;8.25
69420;BMP280;56612;52.030;113.524;2022-10-16T09:29:47;94386.69;;;8.03
69420;BMP280;56612;52.030;113.524;2022-10-16T09:32:52;94395.22;;;7.86
69420;BMP280;56612;52.030;113.524;2022-10-16T09:35:57;94384.38;;;7.82
69420;BMP280;56612;52.030;113.524;2022-10-16T09:39:04;94390.25;;;7.65
69420;BMP280;56612;52.030;113.524;2022-10-16T09:42:13;94395.69;;;7.25
69420;BMP280;56612;52.030;113.524;2022-10-16T09:45:22;94385.75;;;7.26
69420;BMP280;56612;52.030;113.524;2022-10-16T09:48:50;94381.22;;;7.28
69420;BMP280;56612;52.030;113.524;2022-10-16T09:52:14;94386.94;;;7.23
69420;BMP280;56612;52.030;113.524;2022-10-16T09:55:18;94389.41;;;7.19
69420;BMP280;56612;52.030;113.524;2022-10-16T09:58:22;94383.63;;;7.09
69420;BMP280;56612;52.030;113.524;2022-10-16T10:01:44;94384.78;;;7.19
69420;BMP280;56612;52.030;113.524;2022-10-16T10:04:53;94383.88;;;7.28
69420;BMP280;56612;52.030;113.524;2022-10-16T10:07:59;94383.69;;;7.24
69420;BMP280;56612;52.030;113.524;2022-10-16T10:11:03;94382.13;;;7.33
69420;BMP280;56612;52.030;113.524;2022-10-16T10:14:18;94381.50;;;7.35
69420;BMP280;56612;52.030;113.524;2022-10-16T10:17:25;94378.56;;;7.28
69420;BMP280;56612;52.030;113.524;2022-10-16T10:20:31;94379.06;;;7.25
69420;BMP280;56612;52.030;113.524;2022-10-16T10:23:38;94378.78;;;7.19
69420;BMP280;56612;52.030;113.524;2022-10-16T10:36:30;94393.25;;;7.16
69420;BMP280;56612;52.030;113.524;2022-10-16T10:39:49;94397.28;;;7.17
69420;BMP280;56612;52.030;113.524;2022-10-16T10:43:05;94394.84;;;7.21
69420;BMP280;56612;52.030;113.524;2022-10-16T10:46:50;94397.97;;;7.31
69420;BMP280;56612;52.030;113.524;2022-10-16T10:50:41;94396.19;;;7.22
69420;BMP280;56612;52.030;113.524;2022-10-16T10:53:40;94397.59;;;7.09
69420;BMP280;56612;52.030;113.524;2022-10-16T11:00:48;94401.69;;;6.98
69420;BMP280;56612;52.030;113.524;2022-10-16T11:07:32;94392.16;;;6.93
69420;BMP280;56612;52.030;113.524;2022-10-16T11:10:45;94397.16;;;6.87
69420;BMP280;56612;52.030;113.524;2022-10-16T11:16:58;94400.72;;;6.53
69420;BMP280;56612;52.030;113.524;2022-10-16T11:23:31;94402.44;;;6.09
69420;BMP280;56612;52.030;113.524;2022-10-16T11:26:39;94410.41;;;6.09
69420;BMP280;56612;52.030;113.524;2022-10-16T11:30:02;94406.13;;;6.16
69420;BMP280;56612;52.030;113.524;2022-10-16T11:36:14;94420.13;;;5.93
69420;BMP280;56612;52.030;113.524;2022-10-16T11:39:30;94410.44;;;5.97
69420;BMP280;56612;52.030;113.524;2022-10-16T11:42:43;94422.81;;;5.81
69420;BMP280;56612;52.030;113.524;2022-10-16T11:45:52;94424.50;;;5.75
69420;BMP280;56612;52.030;113.524;2022-10-16T11:49:09;94427.50;;;5.57
69420;BMP280;56612;52.030;113.524;2022-10-16T11:52:49;94429.34;;;5.20
69420;BMP280;56612;52.030;113.524;2022-10-16T11:55:54;94423.13;;;5.03
69420;BMP280;56612;52.030;113.524;2022-10-16T11:59:27;94431.88;;;4.94
69420;BMP280;56612;52.030;113.524;2022-10-16T12:02:56;94428.19;;;4.88
69420;BMP280;56612;52.030;113.524;2022-10-16T12:06:30;94430.78;;;4.76
69420;BMP280;56612;52.030;113.524;2022-10-16T12:09:32;94434.94;;;4.67
69420;BMP280;56612;52.030;113.524;2022-10-16T12:12:40;94435.44;;;4.42
69420;BMP280;56612;52.030;113.524;2022-10-16T12:15:44;94438.78;;;4.43
69420;BMP280;56612;52.030;113.524;2022-10-16T12:19:14;94440.00;;;4.30
69420;BMP280;56612;52.030;113.524;2022-10-16T12:22:18;94445.72;;;4.27
69420;BMP280;56612;52.030;113.524;2022-10-16T12:28:32;94444.66;;;4.20
69420;BMP280;56612;52.030;113.524;2022-10-16T12:31:43;94436.72;;;4.20
69420;BMP280;56612;52.030;113.524;2022-10-16T12:35:04;94444.19;;;4.12
69420;BMP280;56612;52.030;113.524;2022-10-16T12:41:33;94448.13;;;4.01
69420;BMP280;56612;52.030;113.524;2022-10-16T12:44:38;94445.69;;;3.94
69420;BMP280;56612;52.030;113.524;2022-10-16T12:47:50;94447.56;;;3.81
69420;BMP280;56612;52.030;113.524;2022-10-16T12:50:54;94442.59;;;3.76
69420;BMP280;56612;52.030;113.524;2022-10-16T12:54:28;94449.38;;;3.79
69420;BMP280;56612;52.030;113.524;2022-10-16T12:57:49;94457.19;;;3.77
69420;BMP280;56612;52.030;113.524;2022-10-16T13:00:57;94448.50;;;3.65
69420;BMP280;56612;52.030;113.524;2022-10-16T13:15:08;94450.69;;;3.47
69420;BMP280;56612;52.030;113.524;2022-10-16T13:18:46;94444.72;;;3.37
69420;BMP280;56612;52.030;113.524;2022-10-16T13:25:28;94449.72;;;3.33
69420;BMP280;56612;52.030;113.524;2022-10-16T13:28:35;94452.44;;;3.23
69420;BMP280;56612;52.030;113.524;2022-10-16T13:31:43;94451.91;;;3.15
69420;BMP280;56612;52.030;113.524;2022-10-16T13:34:48;94456.34;;;3.12
69420;BMP280;56612;52.030;113.524;2022-10-16T13:41:17;94456.34;;;3.12
69420;BMP280;56612;52.030;113.524;2022-10-16T13:44:21;94454.25;;;3.11
69420;BMP280;56612;52.030;113.524;2022-10-16T13:47:28;94447.34;;;2.96
69420;BMP280;56612;52.030;113.524;2022-10-16T13:50:33;94466.28;;;2.92
69420;BMP280;56612;52.030;113.524;2022-10-16T13:53:36;94454.75;;;2.88
69420;BMP280;56612;52.030;113.524;2022-10-16T13:56:40;94451.72;;;2.82
69420;BMP280;56612;52.030;113.524;2022-10-16T13:59:43;94453.22;;;2.75
69420;BMP280;56612;52.030;113.524;2022-10-16T14:02:52;94457.81;;;2.75
69420;BMP280;56612;52.030;113.524;2022-10-16T14:06:01;94451.75;;;2.62
69420;BMP280;56612;52.030;113.524;2022-10-16T14:09:06;94461.03;;;2.63
69420;BMP280;56612;52.030;113.524;2022-10-16T14:12:11;94454.09;;;2.58
69420;BMP280;56612;52.030;113.524;2022-10-16T14:15:17;94454.78;;;2.59
69420;BMP280;56612;52.030;113.524;2022-10-16T14:18:25;94460.63;;;2.57
69420;BMP280;56612;52.030;113.524;2022-10-16T14:21:37;94451.03;;;2.52
69420;BMP280;56612;52.030;113.524;2022-10-16T14:24:44;94457.13;;;2.45
69420;BMP280;56612;52.030;113.524;2022-10-16T14:31:31;94450.91;;;2.41
69420;BMP280;56612;52.030;113.524;2022-10-16T14:34:38;94454.63;;;2.38
69420;BMP280;56612;52.030;113.524;2022-10-16T14:37:43;94448.53;;;2.35
69420;BMP280;56612;52.030;113.524;2022-10-16T14:40:48;94456.44;;;2.35
69420;BMP280;56612;52.030;113.524;2022-10-16T14:43:55;94458.25;;;2.32
69420;BMP280;56612;52.030;113.524;2022-10-16T14:47:08;94455.34;;;2.28
69420;BMP280;56612;52.030;113.524;2022-10-16T14:50:13;94457.25;;;2.18
69420;BMP280;56612;52.030;113.524;2022-10-16T14:53:18;94455.75;;;2.15
69420;BMP280;56612;52.030;113.524;2022-10-16T14:56:25;94450.22;;;2.21
69420;BMP280;56612;52.030;113.524;2022-10-16T14:59:37;94453.38;;;2.10
69420;BMP280;56612;52.030;113.524;2022-10-16T15:02:42;94449.06;;;2.04
69420;BMP280;56612;52.030;113.524;2022-10-16T15:05:46;94452.66;;;1.99
69420;BMP280;56612;52.030;113.524;2022-10-16T15:08:50;94448.78;;;2.00
69420;BMP280;56612;52.030;113.524;2022-10-16T15:11:54;94451.66;;;1.95
69420;BMP280;56612;52.030;113.524;2022-10-16T15:14:58;94454.88;;;1.93
69420;BMP280;56612;52.030;113.524;2022-10-16T15:18:02;94451.41;;;1.91
69420;BMP280;56612;52.030;113.524;2022-10-16T15:21:06;94453.63;;;1.85
69420;BMP280;56612;52.030;113.524;2022-10-16T15:24:12;94452.88;;;1.74
69420;BMP280;56612;52.030;113.524;2022-10-16T15:27:22;94447.03;;;1.66
69420;BMP280;56612;52.030;113.524;2022-10-16T15:30:26;94450.06;;;1.63
69420;BMP280;56612;52.030;113.524;2022-10-16T15:33:30;94449.25;;;1.60
69420;BMP280;56612;52.030;113.524;2022-10-16T15:36:41;94442.97;;;1.56
69420;BMP280;56612;52.030;113.524;2022-10-16T15:39:45;94437.97;;;1.50
69420;BMP280;56612;52.030;113.524;2022-10-16T15:42:49;94442.97;;;1.46
69420;BMP280;56612;52.030;113.524;2022-10-16T15:46:04;94446.44;;;1.49
69420;BMP280;56612;52.030;113.524;2022-10-16T15:49:09;94441.94;;;1.41
69420;BMP280;56612;52.030;113.524;2022-10-16T15:52:12;94438.06;;;1.42
69420;BMP280;56612;52.030;113.524;2022-10-16T15:55:17;94437.94;;;1.40
69420;BMP280;56612;52.030;113.524;2022-10-16T15:58:21;94438.22;;;1.44
69420;BMP280;56612;52.030;113.524;2022-10-16T16:01:26;94437.53;;;1.44
69420;BMP280;56612;52.030;113.524;2022-10-16T16:04:31;94431.97;;;1.40
69420;BMP280;56612;52.030;113.524;2022-10-16T16:07:50;94446.66;;;1.33
69420;BMP280;56612;52.030;113.524;2022-10-16T16:11:14;94439.59;;;1.36
69420;BMP280;56612;52.030;113.524;2022-10-16T16:14:17;94436.22;;;1.35
69420;BMP280;56612;52.030;113.524;2022-10-16T16:17:21;94431.13;;;1.37
69420;BMP280;56612;52.030;113.524;2022-10-16T16:20:25;94436.69;;;1.41
69420;BMP280;56612;52.030;113.524;2022-10-16T16:23:29;94430.31;;;1.44
69420;BMP280;56612;52.030;113.524;2022-10-16T16:26:34;94427.69;;;1.44
69420;BMP280;56612;52.030;113.524;2022-10-16T16:29:39;94439.31;;;1.41
69420;BMP280;56612;52.030;113.524;2022-10-16T16:32:43;94427.94;;;1.39
69420;BMP280;56612;52.030;113.524;2022-10-16T16:35:46;94438.75;;;1.43
69420;BMP280;56612;52.030;113.524;2022-10-16T16:38:50;94444.72;;;1.43
69420;BMP280;56612;52.030;113.524;2022-10-16T16:41:55;94439.19;;;1.39
69420;BMP280;56612;52.030;113.524;2022-10-16T16:44:59;94437.78;;;1.29
69420;BMP280;56612;52.030;113.524;2022-10-16T16:48:02;94442.03;;;1.24
69420;BMP280;56612;52.030;113.524;2022-10-16T16:51:11;94433.44;;;1.24
69420;BMP280;56612;52.030;113.524;2022-10-16T16:54:19;94424.69;;;1.21
69420;BMP280;56612;52.030;113.524;2022-10-16T16:57:23;94430.66;;;1.22
69420;BMP280;56612;52.030;113.524;2022-10-16T17:00:27;94429.13;;;1.19
69420;BMP280;56612;52.030;113.524;2022-10-16T17:03:33;94427.75;;;1.17
69420;BMP280;56612;52.030;113.524;2022-10-16T17:06:38;94431.16;;;1.10
69420;BMP280;56612;52.030;113.524;2022-10-16T17:09:41;94425.97;;;1.03
69420;BMP280;56612;52.030;113.524;2022-10-16T17:12:45;94424.91;;;1.06
69420;BMP280;56612;52.030;113.524;2022-10-16T17:15:50;94424.59;;;1.02
69420;BMP280;56612;52.030;113.524;2022-10-16T17:18:53;94424.75;;;1.04
69420;BMP280;56612;52.030;113.524;2022-10-16T17:21:57;94430.56;;;1.02
69420;BMP280;56612;52.030;113.524;2022-10-16T17:25:00;94429.56;;;0.98
69420;BMP280;56612;52.030;113.524;2022-10-16T17:28:08;94425.00;;;0.98
69420;BMP280;56612;52.030;113.524;2022-10-16T17:31:16;94428.72;;;0.95
69420;BMP280;56612;52.030;113.524;2022-10-16T17:34:20;94430.22;;;0.88
69420;BMP280;56612;52.030;113.524;2022-10-16T17:37:23;94434.22;;;0.90
69420;BMP280;56612;52.030;113.524;2022-10-16T17:40:28;94427.28;;;0.84
69420;BMP280;56612;52.030;113.524;2022-10-16T17:43:31;94428.81;;;0.87
69420;BMP280;56612;52.030;113.524;2022-10-16T17:46:35;94426.19;;;0.87
69420;BMP280;56612;52.030;113.524;2022-10-16T17:49:42;94434.78;;;0.88
69420;BMP280;56612;52.030;113.524;2022-10-16T17:52:46;94435.47;;;0.88
69420;BMP280;56612;52.030;113.524;2022-10-16T17:55:49;94441.28;;;0.87
69420;BMP280;56612;52.030;113.524;2022-10-16T17:59:00;94436.56;;;0.85
69420;BMP280;56612;52.030;113.524;2022-10-16T18:02:03;94441.75;;;0.76
69420;BMP280;56612;52.030;113.524;2022-10-16T18:05:08;94439.34;;;0.70
69420;BMP280;56612;52.030;113.524;2022-10-16T18:08:13;94428.94;;;0.63
69420;BMP280;56612;52.030;113.524;2022-10-16T18:11:19;94430.69;;;0.60
69420;BMP280;56612;52.030;113.524;2022-10-16T18:14:22;94425.00;;;0.54
69420;BMP280;56612;52.030;113.524;2022-10-16T18:17:26;94426.06;;;0.51
69420;BMP280;56612;52.030;113.524;2022-10-16T18:20:31;94428.41;;;0.47
69420;BMP280;56612;52.030;113.524;2022-10-16T18:23:36;94425.69;;;0.37
69420;BMP280;56612;52.030;113.524;2022-10-16T18:26:39;94421.41;;;0.32
69420;BMP280;56612;52.030;113.524;2022-10-16T18:29:43;94423.56;;;0.26
69420;BMP280;56612;52.030;113.524;2022-10-16T18:32:46;94423.78;;;0.20
69420;BMP280;56612;52.030;113.524;2022-10-16T18:35:50;94421.38;;;0.15
69420;BMP280;56612;52.030;113.524;2022-10-16T18:38:53;94421.59;;;0.09
69420;BMP280;56612;52.030;113.524;2022-10-16T18:41:56;94421.69;;;0.02
69420;BMP280;56612;52.030;113.524;2022-10-16T18:45:02;94424.31;;;0.02
69420;BMP280;56612;52.030;113.524;2022-10-16T18:48:06;94422.53;;;0.04
69420;BMP280;56612;52.030;113.524;2022-10-16T18:51:16;94422.53;;;0.04
69420;BMP280;56612;52.030;113.524;2022-10-16T18:54:22;94426.00;;;0.07
69420;BMP280;56612;52.030;113.524;2022-10-16T18:57:28;94424.78;;;0.08